createdAt,value
2022-10-09T00:00:49.948Z,63.80
2022-10-09T00:03:17.896Z,63.20
2022-10-09T00:05:45.351Z,62.50
2022-10-09T00:08:12.354Z,62.10
2022-10-09T00:10:43.530Z,61.80
2022-10-09T00:13:10.536Z,62.40
2022-10-09T00:15:42.134Z,61.50
2022-10-09T00:18:15.475Z,62.10
2022-10-09T00:20:44.413Z,62.00
2022-10-09T00:23:14.490Z,61.60
2022-10-09T00:25:51.611Z,62.10
2022-10-09T00:28:18.336Z,61.90
2022-10-09T00:30:45.115Z,61.40
2022-10-09T00:33:11.897Z,61.30
2022-10-09T00:35:39.561Z,61.30
2022-10-09T00:38:07.590Z,62.00
2022-10-09T00:40:35.431Z,62.90
2022-10-09T00:43:02.060Z,62.00
2022-10-09T00:45:29.332Z,61.60
2022-10-09T00:48:05.170Z,61.50
2022-10-09T00:50:43.723Z,61.40
2022-10-09T00:53:13.864Z,61.60
2022-10-09T00:55:40.975Z,61.50
2022-10-09T00:58:12.901Z,61.60
2022-10-09T01:00:40.746Z,61.40
2022-10-09T01:03:07.587Z,61.70
2022-10-09T01:06:03.283Z,61.40
2022-10-09T01:08:44.394Z,61.30
2022-10-09T01:11:35.710Z,61.70
2022-10-09T01:14:32.155Z,61.30
2022-10-09T01:17:20.387Z,61.30
2022-10-09T01:19:56.659Z,61.20
2022-10-09T01:22:43.509Z,61.20
2022-10-09T01:25:23.004Z,61.20
2022-10-09T01:27:49.846Z,61.20
2022-10-09T01:30:16.608Z,61.20
2022-10-09T01:32:47.259Z,61.10
2022-10-09T01:35:15.398Z,61.90
2022-10-09T01:37:45.687Z,63.00
2022-10-09T01:40:16.184Z,62.50
2022-10-09T01:42:43.377Z,62.00
2022-10-09T01:45:10.949Z,61.80
2022-10-09T01:47:38.145Z,63.00
2022-10-09T01:50:11.074Z,65.10
2022-10-09T01:52:44.220Z,65.50
2022-10-09T01:55:46.635Z,64.00
2022-10-09T01:58:33.401Z,65.00
2022-10-09T02:01:16.609Z,64.40
2022-10-09T02:03:46.340Z,64.00
2022-10-09T02:06:15.885Z,64.10
2022-10-09T02:08:45.601Z,64.00
2022-10-09T02:11:17.086Z,63.80
2022-10-09T02:13:46.587Z,63.30
2022-10-09T02:16:43.660Z,63.00
2022-10-09T02:19:34.807Z,62.80
2022-10-09T02:22:12.248Z,62.90
2022-10-09T02:24:40.156Z,65.10
2022-10-09T02:27:07.774Z,65.30
2022-10-09T02:29:34.560Z,64.90
2022-10-09T02:32:01.238Z,64.40
2022-10-09T02:34:28.150Z,64.00
2022-10-09T02:36:54.767Z,64.10
2022-10-09T02:39:21.390Z,64.50
2022-10-09T02:41:48.024Z,64.10
2022-10-09T02:44:15.491Z,63.50
2022-10-09T02:46:42.163Z,63.20
2022-10-09T02:49:08.842Z,64.00
2022-10-09T02:51:35.674Z,64.00
2022-10-09T02:54:03.897Z,63.90
2022-10-09T02:56:32.856Z,63.70
2022-10-09T02:59:03.516Z,63.40
2022-10-09T03:01:30.244Z,63.30
2022-10-09T03:03:57.156Z,63.00
2022-10-09T03:06:25.403Z,62.90
2022-10-09T03:08:53.364Z,62.90
2022-10-09T03:11:21.544Z,62.70
2022-10-09T03:13:48.435Z,62.60
2022-10-09T03:16:18.446Z,62.60
2022-10-09T03:18:46.041Z,62.60
2022-10-09T03:21:14.966Z,62.50
2022-10-09T03:23:42.745Z,62.30
2022-10-09T03:26:12.664Z,62.50
2022-10-09T03:28:41.394Z,62.90
2022-10-09T03:31:08.777Z,63.60
2022-10-09T03:33:36.329Z,63.40
2022-10-09T03:36:04.212Z,63.00
2022-10-09T03:38:30.847Z,63.00
2022-10-09T03:41:01.988Z,63.60
2022-10-09T03:43:31.708Z,63.20
2022-10-09T03:46:01.112Z,63.10
2022-10-09T03:48:27.935Z,63.80
2022-10-09T03:50:54.511Z,63.40
2022-10-09T03:53:21.204Z,63.20
2022-10-09T03:55:47.874Z,63.10
2022-10-09T03:58:14.487Z,62.90
2022-10-09T04:00:43.649Z,63.50
2022-10-09T04:03:10.296Z,64.50
2022-10-09T04:05:36.956Z,64.40
2022-10-09T04:08:03.630Z,64.60
2022-10-09T04:10:30.243Z,64.40
2022-10-09T04:12:56.889Z,64.30
2022-10-09T04:15:23.499Z,65.40
2022-10-09T04:17:50.083Z,65.90
2022-10-09T04:20:16.854Z,66.50
2022-10-09T04:22:43.448Z,65.90
2022-10-09T04:25:10.047Z,64.70
2022-10-09T04:27:36.692Z,64.70
2022-10-09T04:30:04.981Z,64.30
2022-10-09T04:32:31.588Z,64.30
2022-10-09T04:34:58.191Z,64.30
2022-10-09T04:37:24.794Z,64.60
2022-10-09T04:39:51.412Z,65.40
2022-10-09T04:42:18.023Z,65.20
2022-10-09T04:44:44.630Z,64.60
2022-10-09T04:47:11.600Z,65.00
2022-10-09T04:49:38.239Z,65.60
2022-10-09T04:52:04.846Z,65.10
2022-10-09T04:54:31.422Z,65.50
2022-10-09T04:56:58.060Z,65.50
2022-10-09T04:59:24.671Z,64.80
2022-10-09T05:01:51.324Z,64.60
2022-10-09T05:04:17.988Z,64.90
2022-10-09T05:06:44.595Z,64.20
2022-10-09T05:09:11.215Z,63.90
2022-10-09T05:11:42.328Z,63.90
2022-10-09T05:14:09.903Z,63.80
2022-10-09T05:17:01.000Z,64.60
2022-10-09T05:19:23.487Z,64.40
2022-10-09T05:21:50.080Z,64.00
2022-10-09T05:24:16.798Z,64.20
2022-10-09T05:26:43.440Z,64.20
2022-10-09T05:29:10.095Z,64.10
2022-10-09T05:31:37.567Z,63.90
2022-10-09T05:34:05.136Z,63.90
2022-10-09T05:36:31.795Z,63.70
2022-10-09T05:39:00.586Z,63.60
2022-10-09T05:41:29.387Z,63.60
2022-10-09T05:44:00.183Z,64.30
2022-10-09T05:46:26.854Z,63.90
2022-10-09T05:49:00.113Z,63.60
2022-10-09T05:51:29.506Z,63.70
2022-10-09T05:53:57.043Z,63.60
2022-10-09T05:56:29.079Z,63.80
2022-10-09T05:58:55.638Z,64.00
2022-10-09T06:01:23.616Z,63.80
2022-10-09T06:03:54.983Z,64.90
2022-10-09T06:06:24.059Z,64.90
2022-10-09T06:08:51.137Z,64.90
2022-10-09T06:11:21.074Z,64.50
2022-10-09T06:13:48.177Z,64.20
2022-10-09T06:16:16.588Z,64.50
2022-10-09T06:18:49.379Z,64.20
2022-10-09T06:21:16.434Z,64.20
2022-10-09T06:23:43.172Z,65.40
2022-10-09T06:26:12.759Z,64.80
2022-10-09T06:28:40.432Z,64.50
2022-10-09T06:31:12.399Z,64.30
2022-10-09T06:33:41.106Z,64.10
2022-10-09T06:36:19.287Z,63.90
2022-10-09T06:38:46.023Z,64.20
2022-10-09T06:41:15.109Z,64.90
2022-10-09T06:43:42.518Z,63.90
2022-10-09T06:46:12.659Z,63.90
2022-10-09T06:48:40.373Z,63.80
2022-10-09T06:51:12.345Z,63.80
2022-10-09T06:53:41.629Z,64.20
2022-10-09T06:56:10.311Z,64.30
2022-10-09T06:58:38.312Z,64.00
2022-10-09T07:01:07.632Z,64.40
2022-10-09T07:03:35.565Z,64.50
2022-10-09T07:06:11.019Z,64.70
2022-10-09T07:08:39.494Z,64.50
2022-10-09T07:11:26.920Z,64.40
2022-10-09T07:13:56.212Z,64.40
2022-10-09T07:16:28.758Z,64.40
2022-10-09T07:18:56.002Z,64.10
2022-10-09T07:21:23.959Z,64.30
2022-10-09T07:23:50.947Z,64.40
2022-10-09T07:26:26.640Z,64.80
2022-10-09T07:28:54.140Z,64.60
2022-10-09T07:31:22.833Z,65.00
2022-10-09T07:33:51.109Z,64.80
2022-10-09T07:36:18.436Z,64.70
2022-10-09T07:38:50.475Z,65.00
2022-10-09T07:41:17.016Z,65.40
2022-10-09T07:43:43.963Z,65.70
2022-10-09T07:46:14.393Z,65.60
2022-10-09T07:48:41.562Z,65.70
2022-10-09T07:51:26.387Z,65.70
2022-10-09T07:53:53.272Z,65.90
2022-10-09T07:56:29.160Z,66.20
2022-10-09T07:58:58.648Z,66.30
2022-10-09T08:01:28.010Z,66.40
2022-10-09T08:03:55.243Z,66.50
2022-10-09T08:06:22.247Z,66.70
2022-10-09T08:08:55.466Z,66.80
2022-10-09T08:11:24.094Z,66.60
2022-10-09T08:13:51.248Z,66.90
2022-10-09T08:16:19.484Z,67.20
2022-10-09T08:18:47.115Z,67.90
2022-10-09T08:21:18.798Z,69.30
2022-10-09T08:23:46.034Z,69.20
2022-10-09T08:26:18.280Z,68.20
2022-10-09T08:28:49.391Z,68.50
2022-10-09T08:31:17.265Z,69.80
2022-10-09T08:33:44.329Z,68.50
2022-10-09T08:36:15.044Z,69.10
2022-10-09T08:38:47.660Z,70.50
2022-10-09T08:41:48.794Z,70.30
2022-10-09T08:44:41.712Z,70.80
2022-10-09T08:47:14.001Z,71.40
2022-10-09T08:49:56.237Z,71.50
2022-10-09T08:52:28.784Z,70.90
2022-10-09T08:54:57.636Z,71.90
2022-10-09T08:57:31.008Z,71.60
2022-10-09T08:59:57.661Z,71.50
2022-10-09T09:02:32.246Z,72.10
2022-10-09T09:05:29.094Z,71.80
2022-10-09T09:08:16.842Z,71.00
2022-10-09T09:10:54.423Z,72.80
2022-10-09T09:13:52.629Z,76.50
2022-10-09T09:16:37.835Z,74.30
2022-10-09T09:19:34.738Z,74.00
2022-10-09T09:22:03.425Z,73.80
2022-10-09T09:24:54.812Z,73.40
2022-10-09T09:27:33.711Z,78.20
2022-10-09T09:30:09.991Z,72.80
2022-10-09T09:32:39.678Z,74.20
2022-10-09T09:35:16.200Z,72.50
2022-10-09T09:37:42.821Z,73.10
2022-10-09T09:40:36.725Z,70.50
2022-10-09T09:43:07.124Z,73.20
2022-10-09T09:45:33.764Z,70.50
2022-10-09T09:48:06.744Z,70.00
2022-10-09T09:51:10.244Z,69.70
2022-10-09T09:53:42.142Z,70.00
2022-10-09T09:56:09.999Z,69.10
2022-10-09T09:58:49.426Z,69.60
2022-10-09T10:01:30.781Z,68.70
2022-10-09T10:04:00.269Z,68.20
2022-10-09T10:06:32.890Z,68.20
2022-10-09T10:09:00.730Z,68.10
2022-10-09T10:11:27.926Z,68.20
2022-10-09T10:13:54.810Z,67.90
2022-10-09T10:16:27.774Z,67.60
2022-10-09T10:18:57.393Z,69.00
2022-10-09T10:21:24.434Z,67.80
2022-10-09T10:26:39.665Z,66.40
2022-10-09T10:29:18.589Z,65.90
2022-10-09T10:32:16.385Z,66.00
2022-10-09T10:34:54.951Z,65.20
2022-10-09T10:37:50.074Z,65.30
2022-10-09T10:40:37.908Z,64.60
2022-10-09T10:43:10.283Z,64.10
2022-10-09T10:45:42.921Z,64.30
2022-10-09T10:48:26.711Z,64.00
2022-10-09T10:51:06.787Z,63.20
2022-10-09T10:53:41.544Z,63.30
2022-10-09T10:56:23.497Z,62.20
2022-10-09T10:59:13.144Z,62.40
2022-10-09T11:02:10.935Z,61.60
2022-10-09T11:04:52.547Z,61.70
2022-10-09T11:07:31.542Z,61.30
2022-10-09T11:10:01.181Z,61.20
2022-10-09T11:13:09.822Z,61.40
2022-10-09T11:15:50.142Z,60.20
2022-10-09T11:18:28.747Z,60.00
2022-10-09T11:21:23.914Z,59.90
2022-10-09T11:24:17.315Z,59.90
2022-10-09T11:27:02.398Z,59.20
2022-10-09T11:29:45.368Z,58.30
2022-10-09T11:32:15.635Z,58.20
2022-10-09T11:34:48.303Z,58.10
2022-10-09T11:37:20.368Z,58.40
2022-10-09T11:39:47.220Z,58.50
2022-10-09T11:42:20.648Z,58.50
2022-10-09T11:44:56.610Z,58.10
2022-10-09T11:47:30.009Z,58.00
2022-10-09T11:50:18.230Z,58.60
2022-10-09T11:53:00.631Z,57.70
2022-10-09T11:55:32.731Z,57.90
2022-10-09T11:58:22.757Z,57.70
2022-10-09T12:00:54.780Z,57.00
2022-10-09T12:03:27.411Z,56.90
2022-10-09T12:06:08.333Z,56.30
2022-10-09T12:08:35.335Z,55.50
2022-10-09T12:11:32.409Z,55.10
2022-10-09T12:14:04.316Z,54.70
2022-10-09T12:16:46.020Z,53.90
2022-10-09T12:19:18.543Z,53.50
2022-10-09T12:22:00.708Z,52.90
2022-10-09T12:24:44.546Z,52.70
2022-10-09T12:27:26.893Z,53.50
2022-10-09T12:29:59.854Z,52.60
2022-10-09T12:32:31.322Z,54.50
2022-10-09T12:34:58.731Z,53.80
2022-10-09T12:37:35.284Z,53.60
2022-10-09T12:40:30.168Z,53.30
2022-10-09T12:42:58.367Z,53.30
2022-10-09T12:45:30.484Z,53.50
2022-10-09T12:48:09.334Z,53.00
2022-10-09T12:50:36.327Z,52.80
2022-10-09T12:53:06.972Z,53.00
2022-10-09T12:55:45.563Z,52.80
2022-10-09T12:58:25.270Z,52.80
2022-10-09T13:00:55.653Z,53.10
2022-10-09T13:03:34.856Z,52.20
2022-10-09T13:06:03.299Z,52.20
2022-10-09T13:08:36.068Z,51.90
2022-10-09T13:11:10.036Z,52.10
2022-10-09T13:13:37.112Z,51.40
2022-10-09T13:16:10.467Z,51.70
2022-10-09T13:18:38.248Z,51.30
2022-10-09T13:21:17.672Z,50.90
2022-10-09T13:23:44.310Z,51.10
2022-10-09T13:26:27.487Z,51.00
2022-10-09T13:28:56.688Z,50.90
2022-10-09T13:31:23.378Z,51.00
2022-10-09T13:33:50.717Z,50.70
2022-10-09T13:36:19.352Z,50.90
2022-10-09T13:38:47.149Z,51.00
2022-10-09T13:41:19.217Z,51.10
2022-10-09T13:43:46.643Z,49.90
2022-10-09T13:46:13.285Z,49.70
2022-10-09T13:48:40.415Z,48.70
2022-10-09T13:51:07.169Z,48.30
2022-10-09T13:53:34.427Z,49.20
2022-10-09T13:56:03.253Z,49.80
2022-10-09T13:58:29.996Z,47.90
2022-10-09T14:00:58.092Z,49.50
2022-10-09T14:03:24.755Z,48.60
2022-10-09T14:05:58.606Z,50.00
2022-10-09T14:08:25.275Z,50.20
2022-10-09T14:10:51.903Z,49.60
2022-10-09T14:13:19.308Z,49.60
2022-10-09T14:15:46.202Z,49.80
2022-10-09T14:18:12.865Z,49.50
2022-10-09T14:20:39.617Z,49.00
2022-10-09T14:23:06.250Z,47.70
2022-10-09T14:25:34.268Z,48.10
2022-10-09T14:28:00.875Z,48.30
2022-10-09T14:30:27.700Z,48.90
2022-10-09T14:32:55.250Z,45.40
2022-10-09T14:35:21.953Z,47.00
2022-10-09T14:37:48.832Z,44.20
2022-10-09T14:40:15.637Z,42.50
2022-10-09T14:42:42.352Z,46.30
2022-10-09T14:45:09.791Z,46.70
2022-10-09T14:47:36.481Z,46.90
2022-10-09T14:50:03.751Z,47.50
2022-10-09T14:52:30.451Z,47.30
2022-10-09T14:54:57.117Z,45.30
2022-10-09T14:57:23.758Z,44.80
2022-10-09T14:59:50.579Z,45.60
2022-10-09T15:02:17.764Z,46.20
2022-10-09T15:04:44.415Z,46.50
2022-10-09T15:07:11.270Z,46.00
2022-10-09T15:09:38.195Z,42.90
2022-10-09T15:12:05.008Z,43.60
2022-10-09T15:14:31.690Z,42.20
2022-10-09T15:16:58.304Z,42.80
2022-10-09T15:19:24.939Z,43.60
2022-10-09T15:21:51.668Z,45.30
2022-10-09T15:24:18.368Z,44.90
2022-10-09T15:26:45.084Z,46.20
2022-10-09T15:29:12.059Z,45.20
2022-10-09T15:31:41.235Z,44.20
2022-10-09T15:34:10.026Z,44.00
2022-10-09T15:36:39.788Z,46.20
2022-10-09T15:39:08.748Z,46.70
2022-10-09T15:41:38.019Z,46.30
2022-10-09T15:44:14.084Z,45.10
2022-10-09T15:46:40.799Z,45.10
2022-10-09T15:49:08.203Z,46.00
2022-10-09T15:51:35.200Z,46.40
2022-10-09T15:54:02.132Z,45.20
2022-10-09T15:56:29.620Z,45.00
2022-10-09T15:58:57.424Z,44.70
2022-10-09T16:01:24.495Z,44.50
2022-10-09T16:03:51.820Z,45.50
2022-10-09T16:06:21.302Z,45.50
2022-10-09T16:08:48.612Z,45.80
2022-10-09T16:11:20.403Z,46.10
2022-10-09T16:13:50.116Z,46.60
2022-10-09T16:16:22.449Z,46.50
2022-10-09T16:18:49.703Z,46.00
2022-10-09T16:21:22.093Z,46.20
2022-10-09T16:23:49.173Z,46.10
2022-10-09T16:26:18.539Z,45.80
2022-10-09T16:28:46.475Z,46.30
2022-10-09T16:31:24.644Z,45.40
2022-10-09T16:33:51.722Z,46.60
2022-10-09T16:36:18.614Z,45.80
2022-10-09T16:38:48.021Z,45.50
2022-10-09T16:41:19.776Z,44.90
2022-10-09T16:43:52.785Z,45.10
2022-10-09T16:46:23.990Z,45.20
2022-10-09T16:48:52.510Z,44.50
2022-10-09T16:51:24.850Z,44.50
2022-10-09T16:53:56.231Z,44.30
2022-10-09T16:56:29.570Z,45.40
2022-10-09T16:58:57.847Z,45.60
2022-10-09T17:01:25.889Z,46.20
2022-10-09T17:03:57.314Z,45.70
2022-10-09T17:06:24.632Z,45.30
2022-10-09T17:08:52.898Z,45.80
2022-10-09T17:11:20.241Z,45.70
2022-10-09T17:13:47.229Z,45.90
2022-10-09T17:16:18.634Z,45.70
2022-10-09T17:18:47.202Z,46.00
2022-10-09T17:21:15.579Z,45.50
2022-10-09T17:23:42.265Z,45.90
2022-10-09T17:26:12.123Z,46.70
2022-10-09T17:28:40.427Z,46.50
2022-10-09T17:31:10.128Z,46.30
2022-10-09T17:33:41.184Z,47.20
2022-10-09T17:36:08.797Z,47.30
2022-10-09T17:38:36.196Z,46.70
2022-10-09T17:41:11.731Z,47.40
2022-10-09T17:43:39.551Z,47.30
2022-10-09T17:46:06.945Z,47.20
2022-10-09T17:48:34.654Z,47.50
2022-10-09T17:51:06.323Z,47.30
2022-10-09T17:53:33.044Z,47.80
2022-10-09T17:56:03.783Z,47.70
2022-10-09T17:58:30.461Z,47.80
2022-10-09T18:00:57.181Z,48.20
2022-10-09T18:03:23.867Z,48.10
2022-10-09T18:05:50.843Z,48.70
2022-10-09T18:08:19.219Z,48.90
2022-10-09T18:10:46.254Z,49.10
2022-10-09T18:13:13.233Z,48.90
2022-10-09T18:15:42.412Z,49.50
2022-10-09T18:18:09.982Z,49.40
2022-10-09T18:20:37.758Z,49.20
2022-10-09T18:23:05.633Z,49.60
2022-10-09T18:25:32.959Z,49.70
2022-10-09T18:27:59.779Z,49.80
2022-10-09T18:30:27.715Z,50.70
2022-10-09T18:32:54.611Z,50.70
2022-10-09T18:35:21.433Z,50.70
2022-10-09T18:37:48.111Z,50.20
2022-10-09T18:40:14.806Z,50.40
2022-10-09T18:42:41.563Z,51.10
2022-10-09T18:45:10.877Z,50.70
2022-10-09T18:47:37.708Z,50.50
2022-10-09T18:50:08.723Z,50.40
2022-10-09T18:52:37.279Z,50.50
2022-10-09T18:55:06.131Z,50.70
2022-10-09T18:57:34.143Z,50.90
2022-10-09T19:00:01.804Z,50.80
2022-10-09T19:02:28.783Z,51.00
2022-10-09T19:04:55.641Z,51.20
2022-10-09T19:07:22.622Z,52.50
2022-10-09T19:09:52.417Z,51.50
2022-10-09T19:12:23.346Z,52.40
2022-10-09T19:14:49.978Z,52.10
2022-10-09T19:17:16.800Z,52.10
2022-10-09T19:19:43.634Z,52.00
2022-10-09T19:22:14.854Z,51.90
2022-10-09T19:24:42.969Z,51.80
2022-10-09T19:27:10.036Z,51.90
2022-10-09T19:29:36.818Z,51.90
2022-10-09T19:32:05.908Z,52.00
2022-10-09T19:34:32.592Z,52.10
2022-10-09T19:36:59.425Z,52.00
2022-10-09T19:39:26.444Z,52.30
2022-10-09T19:41:53.537Z,52.50
2022-10-09T19:44:21.000Z,53.10
2022-10-09T19:46:48.402Z,53.70
2022-10-09T19:49:15.650Z,53.40
2022-10-09T19:51:45.399Z,53.30
2022-10-09T19:54:12.078Z,53.20
2022-10-09T19:56:39.918Z,53.30
2022-10-09T19:59:09.771Z,53.20
2022-10-09T20:01:39.878Z,53.40
2022-10-09T20:04:09.935Z,53.50
2022-10-09T20:06:39.072Z,53.80
2022-10-09T20:09:07.070Z,53.90
2022-10-09T20:11:35.418Z,54.40
2022-10-09T20:14:07.799Z,54.40
2022-10-09T20:16:34.574Z,54.40
2022-10-09T20:19:02.214Z,54.30
2022-10-09T20:21:30.706Z,54.60
2022-10-09T20:23:58.407Z,54.20
2022-10-09T20:26:25.792Z,54.20
2022-10-09T20:28:55.876Z,54.30
2022-10-09T20:31:25.650Z,54.30
2022-10-09T20:33:54.423Z,54.70
2022-10-09T20:36:27.654Z,54.70
2022-10-09T20:38:56.569Z,55.10
2022-10-09T20:41:24.277Z,55.90
2022-10-09T20:43:53.082Z,56.30
2022-10-09T20:46:23.825Z,56.40
2022-10-09T20:48:51.481Z,56.70
2022-10-09T20:51:19.477Z,55.90
2022-10-09T20:53:46.745Z,55.90
2022-10-09T20:56:14.544Z,56.20
2022-10-09T20:58:41.401Z,55.90
2022-10-09T21:01:09.785Z,56.20
2022-10-09T21:03:37.828Z,56.30
2022-10-09T21:06:06.619Z,56.80
2022-10-09T21:08:34.405Z,56.90
2022-10-09T21:11:03.779Z,56.50
2022-10-09T21:13:30.375Z,56.50
2022-10-09T21:15:57.260Z,57.20
2022-10-09T21:18:23.956Z,57.20
2022-10-09T21:20:50.656Z,58.40
2022-10-09T21:23:18.991Z,57.70
2022-10-09T21:25:53.339Z,58.60
2022-10-09T21:28:21.349Z,58.90
2022-10-09T21:30:49.228Z,58.80
2022-10-09T21:33:16.743Z,60.00
2022-10-09T21:35:47.048Z,59.40
2022-10-09T21:38:16.868Z,59.00
2022-10-09T21:40:44.252Z,59.90
2022-10-09T21:43:11.542Z,59.30
2022-10-09T21:45:39.351Z,59.50
2022-10-09T21:48:06.444Z,59.70
2022-10-09T21:50:34.129Z,59.40
2022-10-09T21:53:00.832Z,58.80
2022-10-09T21:55:27.570Z,58.70
2022-10-09T21:57:54.604Z,58.50
2022-10-09T22:00:21.566Z,58.40
2022-10-09T22:02:48.526Z,58.60
2022-10-09T22:05:15.423Z,59.20
2022-10-09T22:07:42.085Z,60.00
2022-10-09T22:10:09.157Z,60.80
2022-10-09T22:12:35.841Z,60.30
2022-10-09T22:15:02.479Z,60.30
2022-10-09T22:17:29.096Z,60.90
2022-10-09T22:19:55.707Z,61.40
2022-10-09T22:22:23.775Z,60.90
2022-10-09T22:24:51.324Z,61.20
2022-10-09T22:27:18.982Z,61.70
2022-10-09T22:29:45.668Z,62.90
2022-10-09T22:32:12.375Z,62.60
2022-10-09T22:34:39.084Z,62.90
2022-10-09T22:37:06.025Z,62.50
2022-10-09T22:39:32.765Z,61.90
2022-10-09T22:41:59.391Z,61.30
2022-10-09T22:44:26.050Z,60.70
2022-10-09T22:46:52.679Z,61.70
2022-10-09T22:49:19.306Z,60.70
2022-10-09T22:51:46.239Z,61.10
2022-10-09T22:54:13.351Z,60.60
2022-10-09T22:56:42.438Z,60.20
2022-10-09T22:59:14.395Z,60.10
2022-10-09T23:01:48.286Z,59.80
2022-10-09T23:04:16.723Z,60.00
2022-10-09T23:06:44.489Z,59.90
2022-10-09T23:09:13.663Z,60.00
2022-10-09T23:11:40.316Z,61.40
2022-10-09T23:14:07.566Z,61.30
2022-10-09T23:16:34.584Z,61.50
2022-10-09T23:19:06.346Z,62.00
2022-10-09T23:21:34.605Z,62.00
2022-10-09T23:24:02.931Z,62.20
2022-10-09T23:26:31.965Z,63.20
2022-10-09T23:29:00.758Z,61.50
2022-10-09T23:31:28.772Z,61.60
2022-10-09T23:33:56.794Z,61.50
2022-10-09T23:36:26.173Z,62.10
2022-10-09T23:38:53.177Z,62.20
2022-10-09T23:41:22.436Z,61.50
2022-10-09T23:43:49.759Z,60.90
2022-10-09T23:46:23.584Z,60.50
2022-10-09T23:48:51.750Z,60.20
2022-10-09T23:51:20.326Z,60.40
2022-10-09T23:53:47.147Z,60.20
2022-10-09T23:56:19.887Z,60.20
2022-10-09T23:58:47.364Z,60.70
